Time;durP1;ratioP1;P1;durP2;ratioP2;P2;SDS_P1;SDS_P2;PMS_P1;PMS_P2;Temp;Humidity;BMP_temperature;BMP_pressure;BME280_temperature;BME280_humidity;BME280_pressure;Samples;Min_cycle;Max_cycle;Signal;HPM_P1;HPM_P2
2021/04/12 00:01:07;;;;;;;;;;;19.60;58.20;;;;;;5042513;28;1275;-71
2021/04/12 00:03:42;;;;;;;;;;;19.60;58.20;;;;;;5042648;28;1231;-72
2021/04/12 00:06:10;;;;;;;;;;;19.50;58.10;;;;;;5042858;28;1346;-69
2021/04/12 00:08:42;;;;;;;;;;;19.60;58.20;;;;;;5044555;28;1906;-70
2021/04/12 00:11:07;;;;;;;;;;;19.50;58.10;;;;;;5044038;28;1247;-71
2021/04/12 00:13:34;;;;;;;;;;;19.50;58.20;;;;;;5047885;28;1231;-71
2021/04/12 00:16:09;;;;;;;;;;;19.50;58.20;;;;;;5042662;28;1314;-70
2021/04/12 00:18:42;;;;;;;;;;;19.50;58.20;;;;;;5044238;28;1309;-71
2021/04/12 00:21:22;;;;;;;;;;;19.50;58.20;;;;;;5042957;28;1315;-71
2021/04/12 00:23:49;;;;;;;;;;;19.50;58.20;;;;;;5043985;28;1256;-71
2021/04/12 00:26:22;;;;;;;;;;;19.50;58.20;;;;;;5042215;28;1192;-70
2021/04/12 00:28:50;;;;;;;;;;;19.50;58.20;;;;;;5045627;28;1898;-70
2021/04/12 00:31:21;;;;;;;;;;;19.50;58.20;;;;;;5047446;28;1314;-70
2021/04/12 00:33:51;;;;;;;;;;;19.50;58.20;;;;;;5048438;28;1416;-70
2021/04/12 00:36:28;;;;;;;;;;;19.50;58.20;;;;;;5049262;28;1152;-70
2021/04/12 00:38:59;;;;;;;;;;;19.50;58.30;;;;;;5046308;28;1387;-70
2021/04/12 00:41:29;;;;;;;;;;;19.50;58.30;;;;;;5048270;28;1211;-70
2021/04/12 00:44:03;;;;;;;;;;;19.50;58.30;;;;;;5045860;28;1239;-70
2021/04/12 00:46:35;;;;;;;;;;;19.50;58.30;;;;;;5045785;28;1286;-70
2021/04/12 00:49:03;;;;;;;;;;;19.50;58.30;;;;;;5047694;28;1910;-69
2021/04/12 00:51:31;;;;;;;;;;;19.50;58.30;;;;;;5045571;28;1247;-70
2021/04/12 00:54:15;;;;;;;;;;;19.50;58.30;;;;;;5046442;28;1199;-70
2021/04/12 00:56:42;;;;;;;;;;;19.40;58.30;;;;;;5051161;28;1220;-70
2021/04/12 00:59:10;;;;;;;;;;;19.50;58.30;;;;;;5031099;28;1288;-70
2021/04/12 01:01:42;;;;;;;;;;;19.40;58.30;;;;;;5047541;28;1248;-69
2021/04/12 01:04:25;;;;;;;;;;;19.50;58.30;;;;;;5048091;28;1318;-69
2021/04/12 01:06:53;;;;;;;;;;;19.50;58.40;;;;;;5050215;28;1231;-71
2021/04/12 01:09:34;;;;;;;;;;;19.50;58.40;;;;;;5048510;28;1910;-70
2021/04/12 01:12:00;;;;;;;;;;;19.40;58.30;;;;;;5048115;28;1325;-70
2021/04/12 01:14:29;;;;;;;;;;;19.40;58.30;;;;;;5047788;28;1207;-70
2021/04/12 01:17:13;;;;;;;;;;;19.50;58.50;;;;;;5037104;28;1251;-70
2021/04/12 01:19:57;;;;;;;;;;;19.40;58.30;;;;;;5054987;28;1285;-70
2021/04/12 01:22:48;;;;;;;;;;;19.50;58.40;;;;;;5055057;28;1067;-70
2021/04/12 01:25:32;;;;;;;;;;;19.40;58.40;;;;;;5053780;28;1101;-71
2021/04/12 01:28:16;;;;;;;;;;;19.40;58.40;;;;;;5054583;28;1953;-71
2021/04/12 01:30:41;;;;;;;;;;;19.40;58.40;;;;;;5055333;28;1268;-70
2021/04/12 01:33:26;;;;;;;;;;;19.40;58.40;;;;;;5054658;28;1151;-70
2021/04/12 01:36:10;;;;;;;;;;;19.40;58.40;;;;;;5054963;28;1058;-70
2021/04/12 01:38:38;;;;;;;;;;;19.40;58.40;;;;;;5054236;28;1290;-71
2021/04/12 01:41:10;;;;;;;;;;;19.40;58.40;;;;;;5053411;28;1252;-71
2021/04/12 01:43:38;;;;;;;;;;;19.40;58.40;;;;;;5054630;28;1079;-70
2021/04/12 01:46:12;;;;;;;;;;;19.50;59.00;;;;;;5054463;28;1304;-70
2021/04/12 01:48:39;;;;;;;;;;;19.40;58.30;;;;;;5054278;28;1898;-70
2021/04/12 01:51:12;;;;;;;;;;;19.50;58.40;;;;;;5053279;28;1155;-70
2021/04/12 01:53:47;;;;;;;;;;;19.40;58.30;;;;;;5050322;28;1220;-70
2021/04/12 01:56:31;;;;;;;;;;;19.50;58.30;;;;;;5053052;28;1193;-69
2021/04/12 01:59:02;;;;;;;;;;;19.50;58.30;;;;;;5052781;28;1370;-69
2021/04/12 02:01:38;;;;;;;;;;;19.50;58.20;;;;;;5053259;28;796;-69
2021/04/12 02:04:22;;;;;;;;;;;19.50;58.20;;;;;;5053118;28;1202;-69
2021/04/12 02:07:08;;;;;;;;;;;19.50;58.20;;;;;;5052871;28;1237;-69
2021/04/12 02:09:43;;;;;;;;;;;19.50;58.10;;;;;;5052950;28;1902;-70
2021/04/12 02:12:27;;;;;;;;;;;19.50;58.10;;;;;;5049231;28;1155;-70
2021/04/12 02:15:00;;;;;;;;;;;19.50;58.10;;;;;;5045596;28;1387;-70
2021/04/12 02:17:45;;;;;;;;;;;19.50;58.10;;;;;;5028562;28;1292;-70
2021/04/12 02:20:10;;;;;;;;;;;19.50;58.00;;;;;;5053911;28;1280;-70
2021/04/12 02:22:36;;;;;;;;;;;19.60;58.10;;;;;;5053796;28;1071;-71
2021/04/12 02:25:20;;;;;;;;;;;19.60;58.10;;;;;;5045157;28;1095;-70
2021/04/12 02:28:08;;;;;;;;;;;19.50;58.00;;;;;;5044705;28;1898;-70
2021/04/12 02:30:41;;;;;;;;;;;19.60;58.00;;;;;;5017923;28;1312;-71
2021/04/12 02:33:20;;;;;;;;;;;19.60;58.00;;;;;;5047614;28;1135;-71
2021/04/12 02:35:45;;;;;;;;;;;19.60;58.00;;;;;;5045795;28;1066;-71
2021/04/12 02:38:14;;;;;;;;;;;19.60;57.90;;;;;;5049537;28;1234;-70
2021/04/12 02:40:53;;;;;;;;;;;19.60;57.90;;;;;;5046108;28;1383;-70
2021/04/12 02:43:37;;;;;;;;;;;19.60;57.80;;;;;;5041745;28;1286;-70
2021/04/12 02:46:02;;;;;;;;;;;19.70;57.70;;;;;;5048041;28;1151;-71
2021/04/12 02:48:36;;;;;;;;;;;19.80;57.50;;;;;;5047008;28;1973;-70
2021/04/12 02:51:17;;;;;;;;;;;19.90;57.30;;;;;;5052689;28;1166;-71
2021/04/12 02:54:02;;;;;;;;;;;20.10;57.20;;;;;;5052223;28;1147;-71
2021/04/12 02:56:32;;;;;;;;;;;20.20;57.00;;;;;;5052274;28;1062;-71
2021/04/12 02:59:13;;;;;;;;;;;20.30;56.70;;;;;;5051460;28;1362;-71
2021/04/12 03:01:53;;;;;;;;;;;20.40;56.50;;;;;;5053197;28;1262;-71
2021/04/12 03:04:37;;;;;;;;;;;20.50;56.30;;;;;;5053586;28;1177;-70
2021/04/12 03:07:04;;;;;;;;;;;20.50;56.00;;;;;;5052628;28;1228;-71
2021/04/12 03:09:46;;;;;;;;;;;20.60;55.90;;;;;;5051680;28;1964;-71
2021/04/12 03:12:22;;;;;;;;;;;20.70;55.70;;;;;;5052957;28;1206;-70
2021/04/12 03:14:56;;;;;;;;;;;20.70;55.60;;;;;;5051620;28;1123;-71
2021/04/12 03:17:24;;;;;;;;;;;20.80;55.50;;;;;;5051315;28;1076;-71
2021/04/12 03:20:09;;;;;;;;;;;20.80;55.30;;;;;;5051582;28;1361;-71
2021/04/12 03:22:53;;;;;;;;;;;20.90;55.30;;;;;;5053066;28;1205;-71
2021/04/12 03:25:18;;;;;;;;;;;20.90;55.10;;;;;;5052933;28;1086;-71
2021/04/12 03:27:49;;;;;;;;;;;21.00;55.70;;;;;;5052337;28;1903;-71
2021/04/12 03:30:34;;;;;;;;;;;21.00;55.00;;;;;;5051510;28;1306;-71
2021/04/12 03:33:18;;;;;;;;;;;21.00;54.90;;;;;;5052812;28;1198;-71
2021/04/12 03:35:49;;;;;;;;;;;21.00;54.90;;;;;;5052878;28;1150;-71
2021/04/12 03:38:23;;;;;;;;;;;21.10;54.80;;;;;;5052401;28;1056;-70
2021/04/12 03:40:58;;;;;;;;;;;21.10;54.80;;;;;;5051514;28;1470;-71
2021/04/12 03:43:42;;;;;;;;;;;21.10;54.70;;;;;;5051568;28;1071;-70
2021/04/12 03:46:24;;;;;;;;;;;21.10;54.80;;;;;;5053249;28;1186;-70
2021/04/12 03:48:59;;;;;;;;;;;21.20;54.80;;;;;;5050779;28;1906;-71
2021/04/12 03:51:30;;;;;;;;;;;21.20;54.70;;;;;;5052652;28;1059;-70
2021/04/12 03:54:08;;;;;;;;;;;21.20;54.80;;;;;;5051420;28;1135;-71
2021/04/12 03:56:52;;;;;;;;;;;21.20;55.30;;;;;;5052535;28;1125;-71
2021/04/12 03:59:25;;;;;;;;;;;21.20;54.80;;;;;;5050818;28;1346;-71
2021/04/12 04:02:06;;;;;;;;;;;21.20;54.80;;;;;;5052018;28;1147;-70
2021/04/12 04:04:38;;;;;;;;;;;21.20;54.80;;;;;;5055276;28;1576;-70
2021/04/12 04:07:07;;;;;;;;;;;21.10;54.70;;;;;;5055074;28;1319;-70
2021/04/12 04:09:51;;;;;;;;;;;21.20;54.80;;;;;;5056171;28;1977;-70
2021/04/12 04:12:31;;;;;;;;;;;21.10;54.80;;;;;;5056445;28;1027;-70
2021/04/12 04:15:15;;;;;;;;;;;21.10;54.90;;;;;;5056064;28;1241;-71
2021/04/12 04:17:41;;;;;;;;;;;21.10;54.90;;;;;;5056113;28;972;-71
2021/04/12 04:20:15;;;;;;;;;;;21.10;55.00;;;;;;5055930;28;1247;-70
2021/04/12 04:22:59;;;;;;;;;;;21.10;55.00;;;;;;5055171;28;1140;-71
2021/04/12 04:25:43;;;;;;;;;;;21.10;55.10;;;;;;5054944;28;1325;-70
2021/04/12 04:28:30;;;;;;;;;;;21.00;55.10;;;;;;5071089;28;1901;-71
2021/04/12 04:30:55;;;;;;;;;;;21.00;55.10;;;;;;5054799;28;1209;-71
2021/04/12 04:33:33;;;;;;;;;;;21.00;55.20;;;;;;5056055;28;1110;-71
2021/04/12 04:35:58;;;;;;;;;;;21.00;55.20;;;;;;5038133;28;1510;-71
2021/04/12 04:38:46;;;;;;;;;;;21.00;55.30;;;;;;5055638;28;1059;-71
2021/04/12 04:41:12;;;;;;;;;;;21.00;55.30;;;;;;5054744;28;1147;-70
2021/04/12 04:43:44;;;;;;;;;;;20.90;55.30;;;;;;5054601;28;1189;-70
2021/04/12 04:46:15;;;;;;;;;;;20.90;55.40;;;;;;5055829;28;1190;-71
2021/04/12 04:48:40;;;;;;;;;;;20.90;55.40;;;;;;5053936;28;1963;-71
2021/04/12 04:51:07;;;;;;;;;;;20.90;55.50;;;;;;5055457;28;1134;-71
2021/04/12 04:53:44;;;;;;;;;;;20.90;55.50;;;;;;5037799;28;1427;-71
2021/04/12 04:56:28;;;;;;;;;;;20.90;55.60;;;;;;5055783;28;1078;-71
2021/04/12 04:58:56;;;;;;;;;;;20.80;55.60;;;;;;5055205;28;1290;-71
2021/04/12 05:01:21;;;;;;;;;;;20.80;55.60;;;;;;5054119;28;1301;-70
2021/04/12 05:03:51;;;;;;;;;;;20.80;55.60;;;;;;5055058;28;1067;-70
2021/04/12 05:06:16;;;;;;;;;;;20.80;55.70;;;;;;5037597;28;1447;-70
2021/04/12 05:08:52;;;;;;;;;;;20.80;55.70;;;;;;5054775;28;1906;-70
2021/04/12 05:11:29;;;;;;;;;;;20.90;55.70;;;;;;5037631;28;1156;-70
2021/04/12 05:14:14;;;;;;;;;;;20.90;55.60;;;;;;5052950;28;1047;-70
2021/04/12 05:16:48;;;;;;;;;;;20.90;55.60;;;;;;5055132;28;1055;-69
2021/04/12 05:19:23;;;;;;;;;;;20.90;55.50;;;;;;5054866;28;1197;-70
2021/04/12 05:21:48;;;;;;;;;;;21.00;55.50;;;;;;5053866;28;1131;-70
2021/04/12 05:24:25;;;;;;;;;;;21.00;55.50;;;;;;5055119;28;1142;-70
2021/04/12 05:26:55;;;;;;;;;;;21.00;55.40;;;;;;5053673;28;1178;-70
2021/04/12 05:29:28;;;;;;;;;;;21.00;55.30;;;;;;5042576;28;1910;-68
2021/04/12 05:31:56;;;;;;;;;;;21.00;55.30;;;;;;5048136;28;1327;-68
2021/04/12 05:34:31;;;;;;;;;;;21.00;55.30;;;;;;5044704;28;1126;-68
2021/04/12 05:37:03;;;;;;;;;;;21.00;55.30;;;;;;5054619;28;1090;-68
2021/04/12 05:39:47;;;;;;;;;;;21.10;55.30;;;;;;5052000;28;1399;-68
2021/04/12 05:42:20;;;;;;;;;;;21.00;55.30;;;;;;5054842;28;1114;-69
2021/04/12 05:44:57;;;;;;;;;;;21.00;55.30;;;;;;5053119;28;1388;-69
2021/04/12 05:47:37;;;;;;;;;;;21.00;55.30;;;;;;5053820;28;1952;-69
2021/04/12 05:50:13;;;;;;;;;;;21.00;55.30;;;;;;5053337;28;1321;-67
2021/04/12 05:52:41;;;;;;;;;;;21.00;55.30;;;;;;5054606;28;1122;-68
2021/04/12 05:55:12;;;;;;;;;;;21.00;55.40;;;;;;5054389;28;1063;-67
2021/04/12 05:57:41;;;;;;;;;;;21.00;55.40;;;;;;5054103;28;1044;-69
2021/04/12 06:00:12;;;;;;;;;;;21.00;55.40;;;;;;5035932;28;1296;-69
2021/04/12 06:02:57;;;;;;;;;;;20.90;55.40;;;;;;5054351;28;1141;-68
2021/04/12 06:05:30;;;;;;;;;;;20.90;55.50;;;;;;5050923;28;1056;-70
2021/04/12 06:08:01;;;;;;;;;;;20.90;55.50;;;;;;5052751;28;1961;-68
2021/04/12 06:10:27;;;;;;;;;;;20.90;55.50;;;;;;5052415;28;1335;-68
2021/04/12 06:13:06;;;;;;;;;;;20.90;55.60;;;;;;5054170;28;1083;-68
2021/04/12 06:15:34;;;;;;;;;;;20.90;55.60;;;;;;5040075;28;1068;-68
2021/04/12 06:18:18;;;;;;;;;;;20.90;55.60;;;;;;5053668;28;1118;-68
2021/04/12 06:20:58;;;;;;;;;;;20.90;55.70;;;;;;5053562;28;1230;-69
2021/04/12 06:23:26;;;;;;;;;;;20.90;55.70;;;;;;5053843;28;1073;-70
2021/04/12 06:26:10;;;;;;;;;;;20.80;55.70;;;;;;5052894;28;1106;-69
2021/04/12 06:28:38;;;;;;;;;;;20.80;55.70;;;;;;5041518;28;1890;-71
2021/04/12 06:31:23;;;;;;;;;;;20.80;55.70;;;;;;5053453;28;1115;-68
2021/04/12 06:33:54;;;;;;;;;;;20.80;55.80;;;;;;5052675;28;1150;-70
2021/04/12 06:36:22;;;;;;;;;;;20.80;55.80;;;;;;5046099;28;1107;-68
2021/04/12 06:38:50;;;;;;;;;;;20.80;55.90;;;;;;5053247;28;1279;-69
2021/04/12 06:41:35;;;;;;;;;;;20.70;55.90;;;;;;5053517;28;1311;-67
2021/04/12 06:44:00;;;;;;;;;;;20.80;56.00;;;;;;5053306;28;1071;-67
2021/04/12 06:46:38;;;;;;;;;;;20.70;56.00;;;;;;5053913;28;1130;-67
2021/04/12 06:49:22;;;;;;;;;;;20.70;56.00;;;;;;5052861;28;1910;-65
2021/04/12 06:51:47;;;;;;;;;;;20.70;56.00;;;;;;5053467;28;1126;-67
2021/04/12 06:54:31;;;;;;;;;;;20.70;56.70;;;;;;5052882;28;1102;-66
2021/04/12 06:57:15;;;;;;;;;;;20.70;56.10;;;;;;5053165;28;1155;-68
2021/04/12 06:59:56;;;;;;;;;;;20.70;56.20;;;;;;5052782;28;1794;-68
2021/04/12 07:02:40;;;;;;;;;;;20.70;56.20;;;;;;5051357;28;1060;-68
2021/04/12 07:05:08;;;;;;;;;;;20.60;56.20;;;;;;5053224;28;1055;-68
2021/04/12 07:07:55;;;;;;;;;;;20.60;56.20;;;;;;5051639;28;1910;-68
2021/04/12 07:10:30;;;;;;;;;;;20.60;56.20;;;;;;5050504;28;1808;-68
2021/04/12 07:13:08;;;;;;;;;;;20.60;56.50;;;;;;5052653;28;1196;-69
2021/04/12 07:15:36;;;;;;;;;;;20.60;56.90;;;;;;5033910;28;1329;-69
2021/04/12 07:18:11;;;;;;;;;;;20.60;56.30;;;;;;5051255;28;1373;-69
2021/04/12 07:20:40;;;;;;;;;;;20.60;56.30;;;;;;5051734;28;1329;-69
2021/04/12 07:23:24;;;;;;;;;;;20.60;56.40;;;;;;5052851;28;1043;-69
2021/04/12 07:26:04;;;;;;;;;;;20.50;56.30;;;;;;5042528;28;1134;-69
2021/04/12 07:28:44;;;;;;;;;;;20.50;56.30;;;;;;5052254;28;1902;-69
2021/04/12 07:31:27;;;;;;;;;;;20.50;56.40;;;;;;5052896;28;1004;-69
2021/04/12 07:33:53;;;;;;;;;;;20.50;56.40;;;;;;5051477;28;1387;-69
2021/04/12 07:36:23;;;;;;;;;;;20.50;56.40;;;;;;5052558;28;1126;-69
2021/04/12 07:38:55;;;;;;;;;;;20.50;56.50;;;;;;5050998;28;1302;-69
2021/04/12 07:41:26;;;;;;;;;;;20.50;56.50;;;;;;5051255;28;1416;-69
2021/04/12 07:44:21;;;;;;;;;;;20.50;56.50;;;;;;5052688;28;1055;-69
2021/04/12 07:46:56;;;;;;;;;;;20.40;56.50;;;;;;4998318;28;1238;-69
2021/04/12 07:49:22;;;;;;;;;;;20.50;56.50;;;;;;5034045;28;1950;-69
2021/04/12 07:52:06;;;;;;;;;;;20.40;56.50;;;;;;5052587;28;1043;-69
2021/04/12 07:54:40;;;;;;;;;;;20.40;56.50;;;;;;5052472;28;1138;-69
2021/04/12 07:57:29;;;;;;;;;;;20.40;56.60;;;;;;5052792;28;1163;-70
2021/04/12 08:00:00;;;;;;;;;;;20.40;56.60;;;;;;5051330;28;1402;-69
2021/04/12 08:02:39;;;;;;;;;;;20.40;56.60;;;;;;5051134;28;1127;-69
2021/04/12 08:05:23;;;;;;;;;;;20.40;56.70;;;;;;5051113;28;1111;-69
2021/04/12 08:07:54;;;;;;;;;;;20.40;56.70;;;;;;5052179;28;1959;-69
2021/04/12 08:10:20;;;;;;;;;;;20.40;56.70;;;;;;5052379;28;1275;-69
2021/04/12 08:12:45;;;;;;;;;;;20.40;56.70;;;;;;5052403;28;1079;-69
2021/04/12 08:15:10;;;;;;;;;;;20.40;56.70;;;;;;5051471;28;1134;-69
2021/04/12 08:17:59;;;;;;;;;;;20.40;56.80;;;;;;5051876;28;1082;-70
2021/04/12 08:20:43;;;;;;;;;;;20.30;56.80;;;;;;5051316;28;1283;-70
2021/04/12 08:23:09;;;;;;;;;;;20.30;56.70;;;;;;5052338;28;1146;-71
2021/04/12 08:25:53;;;;;;;;;;;20.30;56.80;;;;;;5051029;28;1410;-70
2021/04/12 08:28:24;;;;;;;;;;;20.40;56.80;;;;;;5051843;28;1918;-70
2021/04/12 08:31:25;;;;;;;;;;;20.40;56.90;;;;;;5052062;28;1163;-71
2021/04/12 08:34:13;;;;;;;;;;;20.30;56.80;;;;;;5019697;28;1400;-70
2021/04/12 08:36:55;;;;;;;;;;;20.30;56.90;;;;;;5023618;28;1388;-70
2021/04/12 08:39:26;;;;;;;;;;;20.30;56.90;;;;;;5050460;28;1307;-70
2021/04/12 08:42:10;;;;;;;;;;;20.30;56.90;;;;;;5052175;28;1283;-70
2021/04/12 08:44:58;;;;;;;;;;;20.30;56.90;;;;;;5051831;28;995;-70
2021/04/12 08:47:24;;;;;;;;;;;20.30;56.90;;;;;;5013491;28;1301;-70
2021/04/12 08:50:01;;;;;;;;;;;20.30;57.00;;;;;;5054268;28;1981;-70
2021/04/12 08:52:27;;;;;;;;;;;20.30;56.90;;;;;;5054475;28;1202;-71
2021/04/12 08:55:14;;;;;;;;;;;20.30;57.00;;;;;;5055548;28;1129;-71
2021/04/12 08:57:57;;;;;;;;;;;20.30;57.00;;;;;;5053951;28;1285;-70
2021/04/12 09:00:29;;;;;;;;;;;20.20;57.00;;;;;;5054309;28;1393;-71
2021/04/12 09:03:10;;;;;;;;;;;20.20;57.00;;;;;;5055116;28;1071;-70
2021/04/12 09:05:39;;;;;;;;;;;20.20;57.00;;;;;;5054037;28;1079;-69
2021/04/12 09:08:07;;;;;;;;;;;20.20;57.00;;;;;;5054897;28;1906;-68
2021/04/12 09:10:46;;;;;;;;;;;20.20;57.00;;;;;;5050025;28;2173;-68
2021/04/12 09:13:32;;;;;;;;;;;20.20;57.00;;;;;;5041535;28;1003;-66
2021/04/12 09:15:57;;;;;;;;;;;20.20;57.10;;;;;;5041808;28;1123;-66
2021/04/12 09:18:25;;;;;;;;;;;20.20;57.10;;;;;;5051031;28;1182;-67
2021/04/12 09:21:00;;;;;;;;;;;20.20;57.10;;;;;;5043251;28;1194;-67
2021/04/12 09:23:43;;;;;;;;;;;20.20;57.10;;;;;;5050362;28;1082;-66
2021/04/12 09:26:14;;;;;;;;;;;20.20;57.10;;;;;;5042742;28;1126;-66
2021/04/12 09:28:45;;;;;;;;;;;20.20;57.10;;;;;;5054735;28;1898;-66
2021/04/12 09:31:29;;;;;;;;;;;20.20;57.10;;;;;;5053575;28;1555;-68
2021/04/12 09:34:09;;;;;;;;;;;20.20;57.20;;;;;;5055036;28;1078;-67
2021/04/12 09:36:50;;;;;;;;;;;20.20;57.20;;;;;;5054749;28;1071;-67
2021/04/12 09:39:15;;;;;;;;;;;20.10;57.10;;;;;;5054243;28;1304;-67
2021/04/12 09:42:05;;;;;;;;;;;20.10;57.20;;;;;;5054937;28;975;-68
2021/04/12 09:44:49;;;;;;;;;;;20.10;57.10;;;;;;5053478;28;1099;-68
2021/04/12 09:47:36;;;;;;;;;;;20.20;57.20;;;;;;5079416;22;1761;-68
2021/04/12 09:50:20;;;;;;;;;;;20.10;57.20;;;;;;5050073;28;1028;-66
2021/04/12 09:52:48;;;;;;;;;;;20.10;57.20;;;;;;5074434;28;1170;-66
2021/04/12 09:55:32;;;;;;;;;;;20.20;57.30;;;;;;5056672;28;1154;-67
2021/04/12 09:58:03;;;;;;;;;;;20.10;57.20;;;;;;5054030;28;1122;-66
2021/04/12 10:00:47;;;;;;;;;;;20.10;57.20;;;;;;5054381;28;1151;-67
2021/04/12 10:03:28;;;;;;;;;;;20.10;57.20;;;;;;5054214;28;1158;-66
2021/04/12 10:05:53;;;;;;;;;;;20.10;57.30;;;;;;5054067;28;1380;-67
2021/04/12 10:08:31;;;;;;;;;;;20.10;57.30;;;;;;5035811;28;1922;-66
2021/04/12 10:11:00;;;;;;;;;;;20.10;57.20;;;;;;5036672;28;1080;-66
2021/04/12 10:13:34;;;;;;;;;;;20.10;57.10;;;;;;5035447;28;1150;-67
2021/04/12 10:16:05;;;;;;;;;;;20.10;57.10;;;;;;5036322;28;1263;-67
2021/04/12 10:18:36;;;;;;;;;;;20.10;57.10;;;;;;5035702;28;1127;-66
2021/04/12 10:21:09;;;;;;;;;;;20.10;57.10;;;;;;5036278;28;1544;-66
2021/04/12 10:23:35;;;;;;;;;;;20.10;57.00;;;;;;5036120;28;1107;-67
2021/04/12 10:26:02;;;;;;;;;;;20.10;57.00;;;;;;5036032;28;1361;-67
2021/04/12 10:28:28;;;;;;;;;;;20.10;57.00;;;;;;5035379;28;1898;-66
2021/04/12 10:31:14;;;;;;;;;;;20.10;57.00;;;;;;5035897;28;1163;-66
2021/04/12 10:33:42;;;;;;;;;;;20.10;56.90;;;;;;5054017;28;1262;-66
2021/04/12 10:36:17;;;;;;;;;;;20.10;56.90;;;;;;5054154;28;1260;-66
2021/04/12 10:38:43;;;;;;;;;;;20.10;56.90;;;;;;5035681;28;1210;-68
2021/04/12 10:41:16;;;;;;;;;;;20.10;56.90;;;;;;5034556;28;2055;-68
2021/04/12 10:43:44;;;;;;;;;;;20.00;56.90;;;;;;5032573;28;1519;-67
2021/04/12 10:46:15;;;;;;;;;;;20.10;56.90;;;;;;5034680;28;1733;-68
2021/04/12 10:48:43;;;;;;;;;;;20.10;56.80;;;;;;5018762;28;1910;-70
2021/04/12 10:51:35;;;;;;;;;;;20.10;56.80;;;;;;5025077;28;1140;-69
2021/04/12 10:54:22;;;;;;;;;;;20.00;56.80;;;;;;5019869;28;1575;-68
2021/04/12 10:56:49;;;;;;;;;;;20.10;56.80;;;;;;5023016;28;1328;-71
2021/04/12 10:59:37;;;;;;;;;;;20.00;56.70;;;;;;5044755;28;1113;-70
2021/04/12 11:02:15;;;;;;;;;;;20.00;56.70;;;;;;5040041;28;1294;-68
2021/04/12 11:04:43;;;;;;;;;;;20.00;56.60;;;;;;5052951;28;1112;-65
2021/04/12 11:07:29;;;;;;;;;;;20.00;56.60;;;;;;5046852;28;1385;-65
2021/04/12 11:10:01;;;;;;;;;;;20.00;56.60;;;;;;5036362;28;1907;-65
2021/04/12 11:12:26;;;;;;;;;;;20.00;56.50;;;;;;5034711;28;1155;-65
2021/04/12 11:14:52;;;;;;;;;;;20.00;56.50;;;;;;5052728;28;1150;-65
2021/04/12 11:17:25;;;;;;;;;;;20.00;56.50;;;;;;5052287;28;1265;-70
2021/04/12 11:19:59;;;;;;;;;;;20.00;56.50;;;;;;5035254;28;1155;-71
2021/04/12 11:22:43;;;;;;;;;;;20.00;56.50;;;;;;5035236;28;1147;-70
2021/04/12 11:25:22;;;;;;;;;;;20.00;56.50;;;;;;5052619;28;1139;-70
2021/04/12 11:27:50;;;;;;;;;;;20.00;56.60;;;;;;5034418;28;1902;-68
2021/04/12 11:30:22;;;;;;;;;;;20.00;56.50;;;;;;5017529;28;1139;-67
2021/04/12 11:32:47;;;;;;;;;;;20.00;56.50;;;;;;5034779;28;1155;-67
2021/04/12 11:35:18;;;;;;;;;;;20.00;56.50;;;;;;5052748;28;1099;-67
2021/04/12 11:37:46;;;;;;;;;;;20.00;56.60;;;;;;5034408;28;1208;-68
2021/04/12 11:40:18;;;;;;;;;;;20.00;56.60;;;;;;5052831;28;1138;-68
2021/04/12 11:42:48;;;;;;;;;;;20.00;56.60;;;;;;5033231;28;1838;-69
2021/04/12 11:45:24;;;;;;;;;;;20.00;56.60;;;;;;5014327;28;1276;-68
2021/04/12 11:48:08;;;;;;;;;;;20.00;56.60;;;;;;5027889;28;1902;-68
2021/04/12 11:50:52;;;;;;;;;;;20.00;56.60;;;;;;5034122;28;1290;-68
2021/04/12 11:53:26;;;;;;;;;;;20.00;56.60;;;;;;5052744;28;1107;-69
2021/04/12 11:55:54;;;;;;;;;;;20.00;56.60;;;;;;5034733;28;1357;-68
2021/04/12 11:58:28;;;;;;;;;;;20.00;56.60;;;;;;5051943;28;1095;-68
2021/04/12 12:00:57;;;;;;;;;;;20.00;56.50;;;;;;5045000;28;1116;-68
2021/04/12 12:03:26;;;;;;;;;;;20.00;57.10;;;;;;5034532;28;1132;-68
2021/04/12 12:05:55;;;;;;;;;;;20.00;56.50;;;;;;5052956;28;1285;-69
2021/04/12 12:08:22;;;;;;;;;;;20.00;56.60;;;;;;5034304;28;1902;-68
2021/04/12 12:11:04;;;;;;;;;;;20.00;56.40;;;;;;5034442;28;1087;-68
2021/04/12 12:13:37;;;;;;;;;;;20.10;56.30;;;;;;5034346;28;1217;-67
2021/04/12 12:16:23;;;;;;;;;;;20.10;56.10;;;;;;5052486;28;1303;-68
2021/04/12 12:19:07;;;;;;;;;;;20.20;56.00;;;;;;5034246;28;1140;-67
2021/04/12 12:21:33;;;;;;;;;;;20.40;55.80;;;;;;5052271;28;1098;-68
2021/04/12 12:24:11;;;;;;;;;;;20.40;55.50;;;;;;5036992;28;1056;-69
2021/04/12 12:26:39;;;;;;;;;;;20.50;55.30;;;;;;5022037;28;1279;-66
2021/04/12 12:29:10;;;;;;;;;;;20.60;55.20;;;;;;5055718;28;1894;-65
2021/04/12 12:31:38;;;;;;;;;;;20.70;55.00;;;;;;5038036;28;1115;-66
2021/04/12 12:34:11;;;;;;;;;;;20.70;54.90;;;;;;5038136;28;1060;-66
2021/04/12 12:36:38;;;;;;;;;;;20.80;54.70;;;;;;5037955;28;1299;-66
2021/04/12 12:39:19;;;;;;;;;;;20.80;54.60;;;;;;5037651;28;1060;-66
2021/04/12 12:41:45;;;;;;;;;;;20.90;54.50;;;;;;5038203;28;1080;-66
2021/04/12 12:44:11;;;;;;;;;;;20.90;54.30;;;;;;5037684;28;1246;-66
2021/04/12 12:46:37;;;;;;;;;;;21.00;54.20;;;;;;5037785;28;1328;-66
2021/04/12 12:49:10;;;;;;;;;;;21.00;54.30;;;;;;5055430;28;1967;-65
2021/04/12 12:51:38;;;;;;;;;;;21.00;54.20;;;;;;5038058;28;1241;-65
2021/04/12 12:54:04;;;;;;;;;;;21.00;54.10;;;;;;5037604;28;1104;-67
2021/04/12 12:56:31;;;;;;;;;;;21.10;54.10;;;;;;5037554;28;1370;-67
2021/04/12 12:58:56;;;;;;;;;;;21.10;54.00;;;;;;5036833;28;1060;-66
2021/04/12 13:01:39;;;;;;;;;;;21.10;53.90;;;;;;5055518;28;1060;-67
2021/04/12 13:04:09;;;;;;;;;;;21.10;54.50;;;;;;5055090;28;1222;-66
2021/04/12 13:06:35;;;;;;;;;;;21.10;53.80;;;;;;5034138;28;1374;-66
2021/04/12 13:09:03;;;;;;;;;;;21.10;53.80;;;;;;5036825;28;1906;-66
2021/04/12 13:11:35;;;;;;;;;;;21.20;53.80;;;;;;5035531;28;2035;-66
2021/04/12 13:14:10;;;;;;;;;;;21.10;53.70;;;;;;5042043;28;1107;-67
2021/04/12 13:16:35;;;;;;;;;;;21.20;53.80;;;;;;5035588;28;1286;-66
2021/04/12 13:19:03;;;;;;;;;;;21.20;53.80;;;;;;5030659;28;1158;-66
2021/04/12 13:21:30;;;;;;;;;;;21.20;53.80;;;;;;5045324;28;1203;-67
2021/04/12 13:24:01;;;;;;;;;;;21.10;53.80;;;;;;5055012;28;1163;-66
2021/04/12 13:26:29;;;;;;;;;;;21.20;53.80;;;;;;5054853;28;1345;-67
2021/04/12 13:28:55;;;;;;;;;;;21.10;53.80;;;;;;5036764;28;1906;-66
2021/04/12 13:31:22;;;;;;;;;;;21.10;53.80;;;;;;5047455;28;1276;-67
2021/04/12 13:33:52;;;;;;;;;;;21.10;53.80;;;;;;5036756;28;1111;-65
2021/04/12 13:36:17;;;;;;;;;;;21.10;53.90;;;;;;5036512;28;1345;-65
2021/04/12 13:38:42;;;;;;;;;;;21.10;53.90;;;;;;5054754;28;1154;-64
2021/04/12 13:41:14;;;;;;;;;;;21.10;54.00;;;;;;5036876;28;1084;-64
2021/04/12 13:43:41;;;;;;;;;;;21.10;54.00;;;;;;5033815;28;1865;-64
2021/04/12 13:46:09;;;;;;;;;;;21.00;53.90;;;;;;5036349;28;1335;-64
2021/04/12 13:48:34;;;;;;;;;;;21.00;54.00;;;;;;5027674;28;1963;-64
2021/04/12 13:51:22;;;;;;;;;;;21.00;54.10;;;;;;5026068;28;1151;-65
2021/04/12 13:53:49;;;;;;;;;;;21.00;54.00;;;;;;5050145;28;1775;-65
2021/04/12 13:56:14;;;;;;;;;;;21.00;54.10;;;;;;5035870;28;1376;-65
2021/04/12 13:58:40;;;;;;;;;;;21.00;54.20;;;;;;5048756;28;1428;-64
2021/04/12 14:01:08;;;;;;;;;;;20.90;54.20;;;;;;5026243;28;1815;-67
2021/04/12 14:03:38;;;;;;;;;;;20.90;54.20;;;;;;5036042;28;1855;-64
2021/04/12 14:06:07;;;;;;;;;;;21.00;54.80;;;;;;5054192;28;1444;-65
2021/04/12 14:08:38;;;;;;;;;;;21.00;54.30;;;;;;5041422;28;2012;-64
2021/04/12 14:11:04;;;;;;;;;;;21.00;54.30;;;;;;5048183;28;2181;-65
2021/04/12 14:13:32;;;;;;;;;;;20.90;54.20;;;;;;5027461;28;1873;-65
2021/04/12 14:15:59;;;;;;;;;;;21.00;54.30;;;;;;5051686;28;1291;-64
2021/04/12 14:18:27;;;;;;;;;;;20.90;54.30;;;;;;5046108;28;1211;-65
2021/04/12 14:20:53;;;;;;;;;;;20.90;54.20;;;;;;5054007;28;1142;-65
2021/04/12 14:23:22;;;;;;;;;;;20.90;54.20;;;;;;5035988;28;1131;-65
2021/04/12 14:25:55;;;;;;;;;;;21.00;54.30;;;;;;5036147;28;1796;-66
2021/04/12 14:28:24;;;;;;;;;;;21.00;54.20;;;;;;5035273;28;1898;-64
2021/04/12 14:30:50;;;;;;;;;;;21.00;54.20;;;;;;5036222;28;1092;-64
2021/04/12 14:33:27;;;;;;;;;;;21.00;54.20;;;;;;5035775;28;1155;-65
2021/04/12 14:36:18;;;;;;;;;;;21.10;54.20;;;;;;5035725;28;1287;-66
2021/04/12 14:38:44;;;;;;;;;;;21.00;54.10;;;;;;5049912;28;1279;-67
2021/04/12 14:41:12;;;;;;;;;;;21.10;54.10;;;;;;5035743;28;1029;-67
2021/04/12 14:43:38;;;;;;;;;;;21.10;54.10;;;;;;5019421;28;1304;-64
2021/04/12 14:46:05;;;;;;;;;;;21.10;54.10;;;;;;5010813;28;1347;-65
2021/04/12 14:48:50;;;;;;;;;;;21.10;54.10;;;;;;5026130;28;1902;-64
2021/04/12 14:51:19;;;;;;;;;;;21.10;54.10;;;;;;5053057;28;1056;-64
2021/04/12 14:53:45;;;;;;;;;;;21.10;54.10;;;;;;5034332;28;1128;-64
2021/04/12 14:56:12;;;;;;;;;;;21.10;54.00;;;;;;5035199;28;1222;-65
2021/04/12 14:58:41;;;;;;;;;;;21.10;54.00;;;;;;5035050;28;1230;-64
2021/04/12 15:01:33;;;;;;;;;;;21.10;54.00;;;;;;5035316;28;1160;-65
2021/04/12 15:04:03;;;;;;;;;;;21.00;54.00;;;;;;5049829;28;1157;-64
2021/04/12 15:06:35;;;;;;;;;;;21.00;54.60;;;;;;5032010;28;1287;-64
2021/04/12 15:09:11;;;;;;;;;;;21.00;54.10;;;;;;5031511;28;1968;-65
2021/04/12 15:11:36;;;;;;;;;;;21.00;54.10;;;;;;5030154;28;1105;-65